sensor_id;sensor_type;location;lat;lon;timestamp;P1;durP1;ratioP1;P2;durP2;ratioP2
75746;SDS011;64363;52.198;21.020;2023-03-25T00:01:02;12.27;;;6.85;;
75746;SDS011;64363;52.198;21.020;2023-03-25T00:03:33;14.32;;;7.85;;
75746;SDS011;64363;52.198;21.020;2023-03-25T00:06:04;10.50;;;5.07;;
75746;SDS011;64363;52.198;21.020;2023-03-25T00:08:30;11.88;;;6.13;;
75746;SDS011;64363;52.198;21.020;2023-03-25T00:10:57;13.02;;;6.32;;
75746;SDS011;64363;52.198;21.020;2023-03-25T00:13:25;12.65;;;6.38;;
75746;SDS011;64363;52.198;21.020;2023-03-25T00:15:51;12.27;;;6.85;;
75746;SDS011;64363;52.198;21.020;2023-03-25T00:18:23;10.73;;;6.57;;
75746;SDS011;64363;52.198;21.020;2023-03-25T00:20:51;12.40;;;6.82;;
75746;SDS011;64363;52.198;21.020;2023-03-25T00:23:18;11.15;;;6.47;;
75746;SDS011;64363;52.198;21.020;2023-03-25T00:25:45;12.05;;;6.00;;
75746;SDS011;64363;52.198;21.020;2023-03-25T00:28:11;11.77;;;7.60;;
75746;SDS011;64363;52.198;21.020;2023-03-25T00:30:39;13.07;;;6.53;;
75746;SDS011;64363;52.198;21.020;2023-03-25T00:33:05;11.55;;;5.75;;
75746;SDS011;64363;52.198;21.020;2023-03-25T00:35:31;10.73;;;6.07;;
75746;SDS011;64363;52.198;21.020;2023-03-25T00:37:57;14.27;;;6.32;;
75746;SDS011;64363;52.198;21.020;2023-03-25T00:40:30;13.52;;;7.30;;
75746;SDS011;64363;52.198;21.020;2023-03-25T00:43:00;11.18;;;5.85;;
75746;SDS011;64363;52.198;21.020;2023-03-25T00:45:27;12.07;;;5.90;;
75746;SDS011;64363;52.198;21.020;2023-03-25T00:47:53;11.88;;;6.32;;
75746;SDS011;64363;52.198;21.020;2023-03-25T00:50:18;11.55;;;6.32;;
75746;SDS011;64363;52.198;21.020;2023-03-25T00:52:46;13.23;;;6.82;;
75746;SDS011;64363;52.198;21.020;2023-03-25T00:55:12;11.82;;;6.50;;
75746;SDS011;64363;52.198;21.020;2023-03-25T00:57:38;11.48;;;6.63;;
75746;SDS011;64363;52.198;21.020;2023-03-25T01:00:04;10.75;;;6.20;;
75746;SDS011;64363;52.198;21.020;2023-03-25T01:02:32;16.58;;;6.85;;
75746;SDS011;64363;52.198;21.020;2023-03-25T01:04:58;13.50;;;7.05;;
75746;SDS011;64363;52.198;21.020;2023-03-25T01:07:24;12.90;;;6.43;;
75746;SDS011;64363;52.198;21.020;2023-03-25T01:12:23;13.38;;;7.28;;
75746;SDS011;64363;52.198;21.020;2023-03-25T01:14:51;14.68;;;7.88;;
75746;SDS011;64363;52.198;21.020;2023-03-25T01:17:17;14.30;;;6.70;;
75746;SDS011;64363;52.198;21.020;2023-03-25T01:19:43;14.10;;;6.60;;
75746;SDS011;64363;52.198;21.020;2023-03-25T01:22:09;14.18;;;6.85;;
75746;SDS011;64363;52.198;21.020;2023-03-25T01:24:36;11.35;;;6.38;;
75746;SDS011;64363;52.198;21.020;2023-03-25T01:27:02;16.55;;;7.78;;
75746;SDS011;64363;52.198;21.020;2023-03-25T01:29:28;14.10;;;8.75;;
75746;SDS011;64363;52.198;21.020;2023-03-25T01:31:54;16.52;;;7.22;;
75746;SDS011;64363;52.198;21.020;2023-03-25T01:34:20;15.05;;;7.97;;
75746;SDS011;64363;52.198;21.020;2023-03-25T01:36:47;16.75;;;8.77;;
75746;SDS011;64363;52.198;21.020;2023-03-25T01:39:14;14.90;;;7.82;;
75746;SDS011;64363;52.198;21.020;2023-03-25T01:41:43;13.40;;;7.85;;
75746;SDS011;64363;52.198;21.020;2023-03-25T01:46:39;15.70;;;7.88;;
75746;SDS011;64363;52.198;21.020;2023-03-25T01:49:13;16.25;;;8.27;;
75746;SDS011;64363;52.198;21.020;2023-03-25T01:51:49;20.08;;;7.88;;
75746;SDS011;64363;52.198;21.020;2023-03-25T01:54:18;16.63;;;8.18;;
75746;SDS011;64363;52.198;21.020;2023-03-25T01:56:44;16.08;;;8.25;;
75746;SDS011;64363;52.198;21.020;2023-03-25T01:59:14;17.48;;;9.23;;
75746;SDS011;64363;52.198;21.020;2023-03-25T02:01:44;14.82;;;8.27;;
75746;SDS011;64363;52.198;21.020;2023-03-25T02:04:12;15.18;;;8.15;;
75746;SDS011;64363;52.198;21.020;2023-03-25T02:06:45;17.50;;;9.07;;
75746;SDS011;64363;52.198;21.020;2023-03-25T02:09:19;14.55;;;8.07;;
75746;SDS011;64363;52.198;21.020;2023-03-25T02:11:48;16.63;;;7.25;;
75746;SDS011;64363;52.198;21.020;2023-03-25T02:14:14;18.48;;;9.30;;
75746;SDS011;64363;52.198;21.020;2023-03-25T02:36:16;16.50;;;9.82;;
75746;SDS011;64363;52.198;21.020;2023-03-25T02:39:27;19.65;;;9.13;;
75746;SDS011;64363;52.198;21.020;2023-03-25T02:42:03;18.42;;;10.13;;
75746;SDS011;64363;52.198;21.020;2023-03-25T02:47:48;20.23;;;10.13;;
75746;SDS011;64363;52.198;21.020;2023-03-25T02:50:18;17.70;;;9.25;;
75746;SDS011;64363;52.198;21.020;2023-03-25T02:52:50;18.70;;;10.27;;
75746;SDS011;64363;52.198;21.020;2023-03-25T02:55:20;17.63;;;8.95;;
75746;SDS011;64363;52.198;21.020;2023-03-25T02:57:50;18.27;;;10.10;;
75746;SDS011;64363;52.198;21.020;2023-03-25T03:00:25;16.27;;;8.60;;
75746;SDS011;64363;52.198;21.020;2023-03-25T03:02:54;17.85;;;9.68;;
75746;SDS011;64363;52.198;21.020;2023-03-25T03:05:28;19.05;;;9.27;;
75746;SDS011;64363;52.198;21.020;2023-03-25T03:16:25;22.23;;;10.68;;
75746;SDS011;64363;52.198;21.020;2023-03-25T03:21:39;17.05;;;9.45;;
75746;SDS011;64363;52.198;21.020;2023-03-25T03:27:03;19.70;;;11.00;;
75746;SDS011;64363;52.198;21.020;2023-03-25T03:29:44;24.42;;;11.20;;
75746;SDS011;64363;52.198;21.020;2023-03-25T03:32:17;21.35;;;10.32;;
75746;SDS011;64363;52.198;21.020;2023-03-25T03:37:17;19.60;;;10.30;;
75746;SDS011;64363;52.198;21.020;2023-03-25T03:39:48;19.52;;;10.32;;
75746;SDS011;64363;52.198;21.020;2023-03-25T03:43:00;19.60;;;11.50;;
75746;SDS011;64363;52.198;21.020;2023-03-25T03:45:21;23.60;;;10.73;;
75746;SDS011;64363;52.198;21.020;2023-03-25T03:47:53;24.38;;;12.27;;
75746;SDS011;64363;52.198;21.020;2023-03-25T03:50:31;20.77;;;11.05;;
75746;SDS011;64363;52.198;21.020;2023-03-25T03:55:30;20.42;;;10.63;;
75746;SDS011;64363;52.198;21.020;2023-03-25T03:58:08;21.92;;;10.98;;
75746;SDS011;64363;52.198;21.020;2023-03-25T04:03:27;24.15;;;10.80;;
75746;SDS011;64363;52.198;21.020;2023-03-25T04:08:39;25.98;;;12.02;;
75746;SDS011;64363;52.198;21.020;2023-03-25T04:11:18;25.88;;;11.95;;
75746;SDS011;64363;52.198;21.020;2023-03-25T04:13:48;25.98;;;12.55;;
75746;SDS011;64363;52.198;21.020;2023-03-25T04:16:18;21.70;;;10.40;;
75746;SDS011;64363;52.198;21.020;2023-03-25T04:18:43;21.17;;;11.35;;
75746;SDS011;64363;52.198;21.020;2023-03-25T04:21:12;22.55;;;10.90;;
75746;SDS011;64363;52.198;21.020;2023-03-25T04:23:39;23.75;;;11.65;;
75746;SDS011;64363;52.198;21.020;2023-03-25T04:26:06;24.45;;;11.27;;
75746;SDS011;64363;52.198;21.020;2023-03-25T04:28:32;22.95;;;12.13;;
75746;SDS011;64363;52.198;21.020;2023-03-25T04:30:57;22.80;;;12.35;;
75746;SDS011;64363;52.198;21.020;2023-03-25T04:33:24;23.50;;;13.30;;
75746;SDS011;64363;52.198;21.020;2023-03-25T04:35:51;23.95;;;12.23;;
75746;SDS011;64363;52.198;21.020;2023-03-25T04:38:17;29.70;;;13.02;;
75746;SDS011;64363;52.198;21.020;2023-03-25T04:40:44;25.85;;;11.90;;
75746;SDS011;64363;52.198;21.020;2023-03-25T04:43:12;22.95;;;12.43;;
75746;SDS011;64363;52.198;21.020;2023-03-25T04:45:39;25.73;;;12.60;;
75746;SDS011;64363;52.198;21.020;2023-03-25T04:48:08;30.02;;;14.70;;
75746;SDS011;64363;52.198;21.020;2023-03-25T04:50:45;28.48;;;14.90;;
75746;SDS011;64363;52.198;21.020;2023-03-25T04:53:11;25.10;;;12.93;;
75746;SDS011;64363;52.198;21.020;2023-03-25T04:55:36;25.60;;;14.10;;
75746;SDS011;64363;52.198;21.020;2023-03-25T04:58:02;28.73;;;13.57;;
75746;SDS011;64363;52.198;21.020;2023-03-25T05:00:28;31.05;;;14.35;;
75746;SDS011;64363;52.198;21.020;2023-03-25T05:02:54;27.92;;;13.13;;
75746;SDS011;64363;52.198;21.020;2023-03-25T05:05:22;28.40;;;13.50;;
75746;SDS011;64363;52.198;21.020;2023-03-25T05:07:49;22.45;;;13.40;;
75746;SDS011;64363;52.198;21.020;2023-03-25T05:10:18;26.80;;;12.52;;
75746;SDS011;64363;52.198;21.020;2023-03-25T05:12:45;25.00;;;13.70;;
75746;SDS011;64363;52.198;21.020;2023-03-25T05:15:11;26.98;;;13.73;;
75746;SDS011;64363;52.198;21.020;2023-03-25T05:17:37;26.55;;;12.77;;
75746;SDS011;64363;52.198;21.020;2023-03-25T05:20:04;30.98;;;13.82;;
75746;SDS011;64363;52.198;21.020;2023-03-25T05:22:32;25.60;;;14.52;;
75746;SDS011;64363;52.198;21.020;2023-03-25T05:24:59;28.55;;;14.13;;
75746;SDS011;64363;52.198;21.020;2023-03-25T05:27:27;29.20;;;16.05;;
75746;SDS011;64363;52.198;21.020;2023-03-25T05:29:57;28.55;;;15.95;;
75746;SDS011;64363;52.198;21.020;2023-03-25T05:32:26;34.83;;;18.08;;
75746;SDS011;64363;52.198;21.020;2023-03-25T05:34:58;40.35;;;21.25;;
75746;SDS011;64363;52.198;21.020;2023-03-25T05:37:24;37.58;;;22.02;;
75746;SDS011;64363;52.198;21.020;2023-03-25T05:39:51;48.45;;;28.05;;
75746;SDS011;64363;52.198;21.020;2023-03-25T05:42:17;42.83;;;24.83;;
75746;SDS011;64363;52.198;21.020;2023-03-25T05:44:50;42.40;;;23.40;;
75746;SDS011;64363;52.198;21.020;2023-03-25T05:47:20;44.80;;;22.88;;
75746;SDS011;64363;52.198;21.020;2023-03-25T05:49:48;36.15;;;20.67;;
75746;SDS011;64363;52.198;21.020;2023-03-25T05:52:15;58.60;;;30.95;;
75746;SDS011;64363;52.198;21.020;2023-03-25T05:54:42;33.25;;;17.92;;
75746;SDS011;64363;52.198;21.020;2023-03-25T05:57:09;30.15;;;16.33;;
75746;SDS011;64363;52.198;21.020;2023-03-25T05:59:35;32.75;;;16.30;;
75746;SDS011;64363;52.198;21.020;2023-03-25T06:04:37;29.63;;;15.93;;
75746;SDS011;64363;52.198;21.020;2023-03-25T06:07:12;28.70;;;15.32;;
75746;SDS011;64363;52.198;21.020;2023-03-25T06:09:47;28.60;;;16.10;;
75746;SDS011;64363;52.198;21.020;2023-03-25T06:12:17;30.73;;;16.30;;
75746;SDS011;64363;52.198;21.020;2023-03-25T06:14:45;27.15;;;14.93;;
75746;SDS011;64363;52.198;21.020;2023-03-25T06:17:12;32.28;;;15.90;;
75746;SDS011;64363;52.198;21.020;2023-03-25T06:19:43;27.80;;;14.55;;
75746;SDS011;64363;52.198;21.020;2023-03-25T06:22:09;24.35;;;14.02;;
75746;SDS011;64363;52.198;21.020;2023-03-25T06:24:39;26.02;;;13.70;;
75746;SDS011;64363;52.198;21.020;2023-03-25T06:27:07;27.27;;;13.32;;
75746;SDS011;64363;52.198;21.020;2023-03-25T06:29:38;24.40;;;13.32;;
75746;SDS011;64363;52.198;21.020;2023-03-25T06:32:06;26.92;;;13.55;;
75746;SDS011;64363;52.198;21.020;2023-03-25T06:34:33;25.42;;;12.93;;
75746;SDS011;64363;52.198;21.020;2023-03-25T06:36:59;25.38;;;13.90;;
75746;SDS011;64363;52.198;21.020;2023-03-25T06:39:26;27.15;;;13.23;;
75746;SDS011;64363;52.198;21.020;2023-03-25T06:41:55;27.13;;;14.15;;
75746;SDS011;64363;52.198;21.020;2023-03-25T06:44:25;23.88;;;13.95;;
75746;SDS011;64363;52.198;21.020;2023-03-25T06:46:52;27.35;;;13.15;;
75746;SDS011;64363;52.198;21.020;2023-03-25T06:49:18;27.75;;;14.35;;
75746;SDS011;64363;52.198;21.020;2023-03-25T06:51:44;27.40;;;13.80;;
75746;SDS011;64363;52.198;21.020;2023-03-25T06:54:10;25.67;;;14.25;;
75746;SDS011;64363;52.198;21.020;2023-03-25T06:56:36;24.13;;;13.55;;
75746;SDS011;64363;52.198;21.020;2023-03-25T06:59:02;24.73;;;13.35;;
75746;SDS011;64363;52.198;21.020;2023-03-25T07:01:28;27.15;;;12.75;;
75746;SDS011;64363;52.198;21.020;2023-03-25T07:03:54;27.90;;;12.77;;
75746;SDS011;64363;52.198;21.020;2023-03-25T07:06:21;31.00;;;14.82;;
75746;SDS011;64363;52.198;21.020;2023-03-25T07:08:48;22.60;;;12.93;;
75746;SDS011;64363;52.198;21.020;2023-03-25T07:11:15;23.40;;;13.13;;
75746;SDS011;64363;52.198;21.020;2023-03-25T07:13:50;23.30;;;13.35;;
75746;SDS011;64363;52.198;21.020;2023-03-25T07:16:20;29.17;;;13.82;;
75746;SDS011;64363;52.198;21.020;2023-03-25T07:18:46;24.00;;;12.98;;
75746;SDS011;64363;52.198;21.020;2023-03-25T07:21:14;22.85;;;11.88;;
75746;SDS011;64363;52.198;21.020;2023-03-25T07:23:40;23.67;;;11.48;;
75746;SDS011;64363;52.198;21.020;2023-03-25T07:26:06;21.05;;;11.73;;
75746;SDS011;64363;52.198;21.020;2023-03-25T07:28:32;25.75;;;13.13;;
75746;SDS011;64363;52.198;21.020;2023-03-25T07:30:58;22.98;;;12.25;;
75746;SDS011;64363;52.198;21.020;2023-03-25T07:33:23;26.27;;;12.63;;
75746;SDS011;64363;52.198;21.020;2023-03-25T07:35:49;23.52;;;11.93;;
75746;SDS011;64363;52.198;21.020;2023-03-25T07:38:15;23.58;;;13.18;;
75746;SDS011;64363;52.198;21.020;2023-03-25T07:40:41;21.98;;;11.90;;
75746;SDS011;64363;52.198;21.020;2023-03-25T07:43:07;24.67;;;12.93;;
75746;SDS011;64363;52.198;21.020;2023-03-25T07:45:32;22.02;;;11.38;;
75746;SDS011;64363;52.198;21.020;2023-03-25T07:48:01;22.58;;;11.43;;
75746;SDS011;64363;52.198;21.020;2023-03-25T07:50:27;18.98;;;11.27;;
75746;SDS011;64363;52.198;21.020;2023-03-25T07:52:53;20.77;;;10.77;;
75746;SDS011;64363;52.198;21.020;2023-03-25T07:55:19;21.98;;;10.10;;
75746;SDS011;64363;52.198;21.020;2023-03-25T07:57:45;19.27;;;10.68;;
75746;SDS011;64363;52.198;21.020;2023-03-25T08:00:11;25.73;;;12.65;;
75746;SDS011;64363;52.198;21.020;2023-03-25T08:02:37;27.33;;;12.77;;
75746;SDS011;64363;52.198;21.020;2023-03-25T08:05:04;24.85;;;12.30;;
75746;SDS011;64363;52.198;21.020;2023-03-25T08:07:31;19.83;;;11.45;;
75746;SDS011;64363;52.198;21.020;2023-03-25T08:09:57;21.63;;;11.20;;
75746;SDS011;64363;52.198;21.020;2023-03-25T08:12:23;23.40;;;11.30;;
75746;SDS011;64363;52.198;21.020;2023-03-25T08:14:48;22.95;;;10.70;;
75746;SDS011;64363;52.198;21.020;2023-03-25T08:17:14;22.60;;;11.43;;
75746;SDS011;64363;52.198;21.020;2023-03-25T08:19:40;18.55;;;10.13;;
75746;SDS011;64363;52.198;21.020;2023-03-25T08:22:05;18.85;;;9.43;;
75746;SDS011;64363;52.198;21.020;2023-03-25T08:24:31;21.70;;;10.98;;
75746;SDS011;64363;52.198;21.020;2023-03-25T08:26:57;17.35;;;8.93;;
75746;SDS011;64363;52.198;21.020;2023-03-25T08:29:25;22.80;;;10.82;;
75746;SDS011;64363;52.198;21.020;2023-03-25T08:31:52;18.38;;;8.82;;
75746;SDS011;64363;52.198;21.020;2023-03-25T08:34:19;20.08;;;9.98;;
75746;SDS011;64363;52.198;21.020;2023-03-25T08:36:46;17.35;;;8.82;;
75746;SDS011;64363;52.198;21.020;2023-03-25T08:39:12;19.20;;;8.35;;
75746;SDS011;64363;52.198;21.020;2023-03-25T08:41:42;18.30;;;8.27;;
75746;SDS011;64363;52.198;21.020;2023-03-25T08:44:08;15.93;;;8.40;;
75746;SDS011;64363;52.198;21.020;2023-03-25T08:46:35;17.35;;;8.73;;
75746;SDS011;64363;52.198;21.020;2023-03-25T08:49:01;21.13;;;8.32;;
75746;SDS011;64363;52.198;21.020;2023-03-25T08:51:28;21.73;;;8.73;;
75746;SDS011;64363;52.198;21.020;2023-03-25T08:53:53;16.50;;;8.40;;
75746;SDS011;64363;52.198;21.020;2023-03-25T08:56:19;16.70;;;7.95;;
75746;SDS011;64363;52.198;21.020;2023-03-25T08:58:45;14.45;;;7.18;;
75746;SDS011;64363;52.198;21.020;2023-03-25T09:01:11;15.18;;;7.63;;
75746;SDS011;64363;52.198;21.020;2023-03-25T09:03:36;13.23;;;6.70;;
75746;SDS011;64363;52.198;21.020;2023-03-25T09:06:05;13.43;;;7.30;;
75746;SDS011;64363;52.198;21.020;2023-03-25T09:08:32;12.70;;;6.15;;
75746;SDS011;64363;52.198;21.020;2023-03-25T09:10:58;12.75;;;6.82;;
75746;SDS011;64363;52.198;21.020;2023-03-25T09:13:24;14.38;;;5.75;;
75746;SDS011;64363;52.198;21.020;2023-03-25T09:15:50;11.90;;;5.40;;
75746;SDS011;64363;52.198;21.020;2023-03-25T09:18:15;11.82;;;5.68;;
75746;SDS011;64363;52.198;21.020;2023-03-25T13:53:42;12.25;;;6.88;;
75746;SDS011;64363;52.198;21.020;2023-03-25T13:59:45;12.48;;;6.53;;
75746;SDS011;64363;52.198;21.020;2023-03-25T14:02:26;11.23;;;6.47;;
75746;SDS011;64363;52.198;21.020;2023-03-25T14:10:40;12.70;;;6.38;;
75746;SDS011;64363;52.198;21.020;2023-03-25T14:13:16;11.98;;;7.25;;
75746;SDS011;64363;52.198;21.020;2023-03-25T14:16:37;13.52;;;7.28;;
75746;SDS011;64363;52.198;21.020;2023-03-25T14:18:48;13.52;;;7.32;;
75746;SDS011;64363;52.198;21.020;2023-03-25T14:23:58;10.23;;;6.70;;
75746;SDS011;64363;52.198;21.020;2023-03-25T14:26:29;14.77;;;7.72;;
75746;SDS011;64363;52.198;21.020;2023-03-25T14:28:58;10.63;;;5.80;;
75746;SDS011;64363;52.198;21.020;2023-03-25T14:31:31;10.27;;;5.80;;
75746;SDS011;64363;52.198;21.020;2023-03-25T14:39:11;14.00;;;6.70;;
75746;SDS011;64363;52.198;21.020;2023-03-25T14:42:09;13.00;;;7.22;;
75746;SDS011;64363;52.198;21.020;2023-03-25T14:44:48;13.88;;;5.90;;
75746;SDS011;64363;52.198;21.020;2023-03-25T14:52:50;10.77;;;6.13;;
75746;SDS011;64363;52.198;21.020;2023-03-25T14:57:50;10.20;;;6.43;;
75746;SDS011;64363;52.198;21.020;2023-03-25T15:00:33;13.02;;;5.63;;
75746;SDS011;64363;52.198;21.020;2023-03-25T15:03:10;10.65;;;5.40;;
75746;SDS011;64363;52.198;21.020;2023-03-25T15:05:38;3.97;;;1.98;;
75746;SDS011;64363;52.198;21.020;2023-03-25T15:10:37;3.25;;;1.60;;
75746;SDS011;64363;52.198;21.020;2023-03-25T15:13:15;3.50;;;1.55;;
75746;SDS011;64363;52.198;21.020;2023-03-25T15:19:00;2.42;;;1.25;;
75746;SDS011;64363;52.198;21.020;2023-03-25T15:23:41;3.75;;;1.42;;
75746;SDS011;64363;52.198;21.020;2023-03-25T15:26:12;3.08;;;1.50;;
75746;SDS011;64363;52.198;21.020;2023-03-25T15:31:45;3.90;;;1.35;;
75746;SDS011;64363;52.198;21.020;2023-03-25T15:48:52;6.65;;;2.90;;
75746;SDS011;64363;52.198;21.020;2023-03-25T15:57:23;4.32;;;2.50;;
75746;SDS011;64363;52.198;21.020;2023-03-25T15:59:58;5.43;;;3.10;;
75746;SDS011;64363;52.198;21.020;2023-03-25T16:02:37;6.80;;;3.45;;
75746;SDS011;64363;52.198;21.020;2023-03-25T16:05:08;5.97;;;2.80;;
75746;SDS011;64363;52.198;21.020;2023-03-25T16:07:38;4.18;;;2.05;;
75746;SDS011;64363;52.198;21.020;2023-03-25T16:10:10;6.70;;;3.25;;
75746;SDS011;64363;52.198;21.020;2023-03-25T16:12:41;12.25;;;4.90;;
75746;SDS011;64363;52.198;21.020;2023-03-25T16:15:12;9.25;;;4.63;;
75746;SDS011;64363;52.198;21.020;2023-03-25T16:17:40;16.08;;;8.40;;
75746;SDS011;64363;52.198;21.020;2023-03-25T16:20:12;18.48;;;7.15;;
75746;SDS011;64363;52.198;21.020;2023-03-25T16:22:42;7.18;;;3.60;;
75746;SDS011;64363;52.198;21.020;2023-03-25T16:25:13;21.42;;;5.18;;
75746;SDS011;64363;52.198;21.020;2023-03-25T16:27:44;8.68;;;4.00;;
75746;SDS011;64363;52.198;21.020;2023-03-25T16:30:22;5.10;;;2.65;;
75746;SDS011;64363;52.198;21.020;2023-03-25T16:35:36;5.15;;;2.47;;
75746;SDS011;64363;52.198;21.020;2023-03-25T16:38:06;5.57;;;3.35;;
75746;SDS011;64363;52.198;21.020;2023-03-25T16:40:38;6.53;;;2.72;;
75746;SDS011;64363;52.198;21.020;2023-03-25T16:43:05;7.55;;;3.45;;
75746;SDS011;64363;52.198;21.020;2023-03-25T16:45:36;10.82;;;4.10;;
75746;SDS011;64363;52.198;21.020;2023-03-25T16:48:05;6.03;;;2.83;;
75746;SDS011;64363;52.198;21.020;2023-03-25T16:50:35;6.32;;;2.90;;
75746;SDS011;64363;52.198;21.020;2023-03-25T16:53:01;8.82;;;4.30;;
75746;SDS011;64363;52.198;21.020;2023-03-25T16:55:49;5.78;;;3.15;;
75746;SDS011;64363;52.198;21.020;2023-03-25T16:58:19;8.30;;;4.72;;
75746;SDS011;64363;52.198;21.020;2023-03-25T17:00:51;6.22;;;3.88;;
75746;SDS011;64363;52.198;21.020;2023-03-25T17:03:36;6.68;;;3.70;;
75746;SDS011;64363;52.198;21.020;2023-03-25T17:06:03;9.40;;;4.25;;
75746;SDS011;64363;52.198;21.020;2023-03-25T17:08:37;10.70;;;5.03;;
75746;SDS011;64363;52.198;21.020;2023-03-25T17:11:03;10.27;;;5.03;;
75746;SDS011;64363;52.198;21.020;2023-03-25T17:13:36;13.77;;;6.40;;
75746;SDS011;64363;52.198;21.020;2023-03-25T17:16:06;13.95;;;6.43;;
75746;SDS011;64363;52.198;21.020;2023-03-25T17:18:32;12.27;;;5.85;;
75746;SDS011;64363;52.198;21.020;2023-03-25T17:21:01;13.60;;;6.72;;
75746;SDS011;64363;52.198;21.020;2023-03-25T17:26:01;12.73;;;5.63;;
75746;SDS011;64363;52.198;21.020;2023-03-25T17:28:34;12.32;;;5.93;;
75746;SDS011;64363;52.198;21.020;2023-03-25T17:31:16;12.18;;;5.63;;
75746;SDS011;64363;52.198;21.020;2023-03-25T17:33:52;13.82;;;6.13;;
75746;SDS011;64363;52.198;21.020;2023-03-25T17:36:22;11.82;;;6.03;;
75746;SDS011;64363;52.198;21.020;2023-03-25T17:38:49;10.38;;;6.20;;
75746;SDS011;64363;52.198;21.020;2023-03-25T17:41:18;12.48;;;6.88;;
75746;SDS011;64363;52.198;21.020;2023-03-25T17:43:48;13.40;;;6.43;;
75746;SDS011;64363;52.198;21.020;2023-03-25T17:46:27;12.93;;;6.35;;
75746;SDS011;64363;52.198;21.020;2023-03-25T17:48:55;15.13;;;6.88;;
75746;SDS011;64363;52.198;21.020;2023-03-25T17:51:23;15.55;;;6.63;;
75746;SDS011;64363;52.198;21.020;2023-03-25T17:53:51;14.88;;;7.30;;
75746;SDS011;64363;52.198;21.020;2023-03-25T17:56:22;15.77;;;7.53;;
75746;SDS011;64363;52.198;21.020;2023-03-25T17:59:00;15.10;;;7.40;;
75746;SDS011;64363;52.198;21.020;2023-03-25T18:01:28;20.23;;;10.55;;
75746;SDS011;64363;52.198;21.020;2023-03-25T18:03:55;25.58;;;11.65;;
75746;SDS011;64363;52.198;21.020;2023-03-25T18:06:21;16.88;;;8.63;;
75746;SDS011;64363;52.198;21.020;2023-03-25T18:08:47;20.30;;;10.27;;
75746;SDS011;64363;52.198;21.020;2023-03-25T18:11:13;20.38;;;9.88;;
75746;SDS011;64363;52.198;21.020;2023-03-25T18:13:39;15.63;;;8.70;;
75746;SDS011;64363;52.198;21.020;2023-03-25T18:16:19;16.40;;;8.30;;
75746;SDS011;64363;52.198;21.020;2023-03-25T18:18:45;13.80;;;7.80;;
75746;SDS011;64363;52.198;21.020;2023-03-25T18:21:12;16.88;;;9.27;;
75746;SDS011;64363;52.198;21.020;2023-03-25T18:23:40;14.82;;;8.98;;
75746;SDS011;64363;52.198;21.020;2023-03-25T18:26:13;17.25;;;8.80;;
75746;SDS011;64363;52.198;21.020;2023-03-25T18:28:40;17.38;;;9.15;;
75746;SDS011;64363;52.198;21.020;2023-03-25T18:31:12;19.73;;;8.18;;
75746;SDS011;64363;52.198;21.020;2023-03-25T18:33:45;15.95;;;7.82;;
75746;SDS011;64363;52.198;21.020;2023-03-25T18:36:13;16.52;;;7.72;;
75746;SDS011;64363;52.198;21.020;2023-03-25T18:38:39;14.55;;;7.68;;
75746;SDS011;64363;52.198;21.020;2023-03-25T18:41:06;16.08;;;7.18;;
75746;SDS011;64363;52.198;21.020;2023-03-25T18:43:32;16.27;;;7.53;;
75746;SDS011;64363;52.198;21.020;2023-03-25T18:45:58;15.38;;;7.18;;
75746;SDS011;64363;52.198;21.020;2023-03-25T18:48:23;15.40;;;7.95;;
75746;SDS011;64363;52.198;21.020;2023-03-25T18:50:50;17.08;;;7.78;;
75746;SDS011;64363;52.198;21.020;2023-03-25T18:53:21;17.55;;;7.32;;
75746;SDS011;64363;52.198;21.020;2023-03-25T18:55:49;12.32;;;7.85;;
75746;SDS011;64363;52.198;21.020;2023-03-25T18:58:16;12.95;;;7.88;;
75746;SDS011;64363;52.198;21.020;2023-03-25T19:00:43;15.80;;;8.07;;
75746;SDS011;64363;52.198;21.020;2023-03-25T19:03:10;16.15;;;8.10;;
75746;SDS011;64363;52.198;21.020;2023-03-25T19:05:37;15.50;;;7.43;;
75746;SDS011;64363;52.198;21.020;2023-03-25T19:08:02;12.63;;;7.03;;
75746;SDS011;64363;52.198;21.020;2023-03-25T19:10:31;16.83;;;7.55;;
75746;SDS011;64363;52.198;21.020;2023-03-25T19:12:58;10.52;;;5.15;;
75746;SDS011;64363;52.198;21.020;2023-03-25T19:15:26;13.00;;;5.40;;
75746;SDS011;64363;52.198;21.020;2023-03-25T19:17:53;10.40;;;5.22;;
75746;SDS011;64363;52.198;21.020;2023-03-25T19:20:23;13.85;;;6.00;;
75746;SDS011;64363;52.198;21.020;2023-03-25T19:22:53;11.32;;;4.97;;
75746;SDS011;64363;52.198;21.020;2023-03-25T19:25:20;11.05;;;5.53;;
75746;SDS011;64363;52.198;21.020;2023-03-25T19:27:46;9.88;;;5.60;;
75746;SDS011;64363;52.198;21.020;2023-03-25T19:30:13;10.05;;;4.57;;
75746;SDS011;64363;52.198;21.020;2023-03-25T19:32:41;7.35;;;3.70;;
75746;SDS011;64363;52.198;21.020;2023-03-25T19:35:08;6.97;;;3.60;;
75746;SDS011;64363;52.198;21.020;2023-03-25T19:37:35;9.25;;;4.22;;
75746;SDS011;64363;52.198;21.020;2023-03-25T19:40:05;10.15;;;4.63;;
75746;SDS011;64363;52.198;21.020;2023-03-25T19:42:36;8.00;;;4.43;;
75746;SDS011;64363;52.198;21.020;2023-03-25T19:45:04;9.98;;;4.95;;
75746;SDS011;64363;52.198;21.020;2023-03-25T19:47:31;10.20;;;5.25;;
75746;SDS011;64363;52.198;21.020;2023-03-25T19:49:57;8.98;;;4.88;;
75746;SDS011;64363;52.198;21.020;2023-03-25T19:52:23;12.23;;;6.15;;
75746;SDS011;64363;52.198;21.020;2023-03-25T19:54:49;10.50;;;5.70;;
75746;SDS011;64363;52.198;21.020;2023-03-25T19:57:15;10.57;;;5.90;;
75746;SDS011;64363;52.198;21.020;2023-03-25T19:59:42;9.57;;;5.78;;
75746;SDS011;64363;52.198;21.020;2023-03-25T20:02:11;10.00;;;5.07;;
75746;SDS011;64363;52.198;21.020;2023-03-25T20:04:39;12.70;;;5.28;;
75746;SDS011;64363;52.198;21.020;2023-03-25T20:07:05;9.75;;;4.03;;
75746;SDS011;64363;52.198;21.020;2023-03-25T20:09:32;9.95;;;4.72;;
75746;SDS011;64363;52.198;21.020;2023-03-25T20:11:57;7.90;;;4.18;;
75746;SDS011;64363;52.198;21.020;2023-03-25T20:14:23;7.28;;;4.65;;
75746;SDS011;64363;52.198;21.020;2023-03-25T20:16:49;9.13;;;4.25;;
75746;SDS011;64363;52.198;21.020;2023-03-25T20:19:15;10.88;;;4.35;;
75746;SDS011;64363;52.198;21.020;2023-03-25T20:21:41;12.90;;;5.60;;
75746;SDS011;64363;52.198;21.020;2023-03-25T23:07:25;19.55;;;9.23;;
75746;SDS011;64363;52.198;21.020;2023-03-25T23:09:50;20.38;;;10.63;;
75746;SDS011;64363;52.198;21.020;2023-03-25T23:12:20;20.42;;;9.80;;
75746;SDS011;64363;52.198;21.020;2023-03-25T23:14:48;17.63;;;10.57;;
75746;SDS011;64363;52.198;21.020;2023-03-25T23:17:15;20.58;;;10.07;;
75746;SDS011;64363;52.198;21.020;2023-03-25T23:19:41;26.10;;;10.15;;
75746;SDS011;64363;52.198;21.020;2023-03-25T23:22:07;21.73;;;10.05;;
75746;SDS011;64363;52.198;21.020;2023-03-25T23:24:34;21.77;;;9.55;;
75746;SDS011;64363;52.198;21.020;2023-03-25T23:27:01;24.20;;;10.35;;
75746;SDS011;64363;52.198;21.020;2023-03-25T23:29:29;23.20;;;10.15;;
75746;SDS011;64363;52.198;21.020;2023-03-25T23:31:55;21.27;;;9.60;;
75746;SDS011;64363;52.198;21.020;2023-03-25T23:34:20;20.25;;;9.85;;
75746;SDS011;64363;52.198;21.020;2023-03-25T23:36:46;25.20;;;9.75;;
75746;SDS011;64363;52.198;21.020;2023-03-25T23:39:15;18.02;;;10.10;;
75746;SDS011;64363;52.198;21.020;2023-03-25T23:41:44;23.17;;;9.80;;